Time;durP1;ratioP1;P1;durP2;ratioP2;P2;SDS_P1;SDS_P2;PMS_P1;PMS_P2;Temp;Humidity;BMP_temperature;BMP_pressure;BME280_temperature;BME280_humidity;BME280_pressure;Samples;Min_cycle;Max_cycle;Signal;HPM_P1;HPM_P2
2022/04/17 00:00:12;;;;;;;7.60;3.50;;;;;;;;;;6317332;22;20166;-84
2022/04/17 00:03:21;;;;;;;6.33;3.30;;;;;;;;;;6317079;22;20196;-86
2022/04/17 00:06:27;;;;;;;7.20;3.53;;;;;;;;;;6297520;22;20246;-87
2022/04/17 00:09:32;;;;;;;6.73;3.53;;;;;;;;;;6316506;22;20169;-85
2022/04/17 00:12:39;;;;;;;7.53;3.37;;;;;;;;;;6317595;22;20600;-89
2022/04/17 00:15:44;;;;;;;6.20;3.57;;;;;;;;;;6317374;22;20627;-85
2022/04/17 00:18:51;;;;;;;8.63;3.43;;;;;;;;;;6299026;22;20209;-86
2022/04/17 00:21:56;;;;;;;6.73;3.27;;;;;;;;;;6316891;22;20192;-86
2022/04/17 00:25:01;;;;;;;6.00;3.23;;;;;;;;;;6299978;22;20177;-87
2022/04/17 00:28:06;;;;;;;7.23;3.60;;;;;;;;;;6299924;22;20493;-86
2022/04/17 00:31:13;;;;;;;7.80;3.70;;;;;;;;;;6298836;22;20169;-85
2022/04/17 00:34:20;;;;;;;8.27;3.33;;;;;;;;;;6317047;22;20157;-86
2022/04/17 00:37:25;;;;;;;5.63;3.20;;;;;;;;;;6317963;22;20184;-85
2022/04/17 00:40:30;;;;;;;5.37;3.43;;;;;;;;;;6316462;22;20169;-86
2022/04/17 00:43:44;;;;;;;6.50;3.30;;;;;;;;;;6317212;22;20152;-88
2022/04/17 00:46:50;;;;;;;5.77;3.53;;;;;;;;;;6317384;22;20241;-85
2022/04/17 00:49:57;;;;;;;7.90;3.77;;;;;;;;;;6300920;22;20172;-88
2022/04/17 00:53:02;;;;;;;7.30;3.77;;;;;;;;;;6300103;22;20160;-88
2022/04/17 00:56:07;;;;;;;8.10;3.50;;;;;;;;;;6317976;22;20174;-87
2022/04/17 00:59:13;;;;;;;7.33;3.37;;;;;;;;;;6315676;22;20173;-88
2022/04/17 01:02:18;;;;;;;12.40;3.90;;;;;;;;;;6317913;22;20192;-87
2022/04/17 01:05:25;;;;;;;7.00;3.67;;;;;;;;;;6320909;22;20259;-87
2022/04/17 01:08:31;;;;;;;7.23;3.20;;;;;;;;;;6303294;22;20211;-87
2022/04/17 01:11:39;;;;;;;6.63;3.33;;;;;;;;;;6320456;22;20160;-88
2022/04/17 01:14:44;;;;;;;8.90;3.47;;;;;;;;;;6318468;22;20204;-87
2022/04/17 01:17:49;;;;;;;6.73;3.33;;;;;;;;;;6320057;22;20200;-87
2022/04/17 01:20:56;;;;;;;6.27;3.50;;;;;;;;;;6301372;22;20169;-86
2022/04/17 01:27:28;;;;;;;5.93;3.33;;;;;;;;;;6319353;22;20161;-88
2022/04/17 01:30:33;;;;;;;5.07;3.10;;;;;;;;;;6299196;22;20181;-86
2022/04/17 01:33:38;;;;;;;5.83;2.90;;;;;;;;;;6319228;22;20168;-86
2022/04/17 01:36:44;;;;;;;6.33;3.07;;;;;;;;;;6319464;22;20177;-88
2022/04/17 01:39:50;;;;;;;6.03;3.37;;;;;;;;;;6302114;22;20537;-87
2022/04/17 01:42:55;;;;;;;6.03;2.83;;;;;;;;;;6320917;22;20205;-89
2022/04/17 01:46:01;;;;;;;4.90;3.30;;;;;;;;;;6321654;22;20202;-91
2022/04/17 01:49:06;;;;;;;6.20;3.13;;;;;;;;;;6303499;22;20257;-86
2022/04/17 01:52:12;;;;;;;5.40;3.20;;;;;;;;;;6322218;22;20192;-86
2022/04/17 01:55:18;;;;;;;6.80;3.30;;;;;;;;;;6321534;22;20164;-86
2022/04/17 01:58:23;;;;;;;6.10;3.13;;;;;;;;;;6303637;22;20180;-87
2022/04/17 02:01:28;;;;;;;8.03;3.53;;;;;;;;;;6320907;22;20197;-86
2022/04/17 02:04:35;;;;;;;5.23;3.40;;;;;;;;;;6302846;22;20283;-88
2022/04/17 02:07:41;;;;;;;6.90;3.27;;;;;;;;;;6318781;22;20165;-88
2022/04/17 02:10:47;;;;;;;7.10;3.87;;;;;;;;;;6320424;22;20164;-87
2022/04/17 02:13:53;;;;;;;5.53;3.40;;;;;;;;;;6318858;22;20161;-87
2022/04/17 02:16:58;;;;;;;6.27;3.30;;;;;;;;;;6318077;22;20207;-87
2022/04/17 02:20:03;;;;;;;6.97;3.60;;;;;;;;;;6301422;22;20217;-88
2022/04/17 02:23:08;;;;;;;7.40;3.40;;;;;;;;;;6316371;22;20235;-87
2022/04/17 02:26:16;;;;;;;7.03;3.50;;;;;;;;;;6319119;22;20161;-87
2022/04/17 02:29:21;;;;;;;7.63;3.60;;;;;;;;;;6319948;22;20161;-88
2022/04/17 02:32:26;;;;;;;10.73;4.23;;;;;;;;;;6302639;22;20169;-87
2022/04/17 02:35:31;;;;;;;10.37;4.20;;;;;;;;;;6316584;22;20169;-88
2022/04/17 02:38:37;;;;;;;8.90;4.40;;;;;;;;;;6300427;22;20169;-84
2022/04/17 02:41:44;;;;;;;8.17;4.03;;;;;;;;;;6318001;22;20188;-87
2022/04/17 02:44:49;;;;;;;11.93;4.30;;;;;;;;;;6320982;22;20612;-87
2022/04/17 02:47:55;;;;;;;8.53;4.43;;;;;;;;;;6319463;22;20165;-89
2022/04/17 02:51:01;;;;;;;10.73;3.93;;;;;;;;;;6321415;22;20180;-90
2022/04/17 02:54:07;;;;;;;7.70;3.93;;;;;;;;;;6319399;22;20164;-87
2022/04/17 02:57:14;;;;;;;10.70;3.93;;;;;;;;;;6320344;22;20165;-87
2022/04/17 03:00:21;;;;;;;8.20;4.20;;;;;;;;;;6322049;22;20380;-87
2022/04/17 03:07:01;;;;;;;8.87;3.97;;;;;;;;;;6211744;22;20178;-89
2022/04/17 03:10:08;;;;;;;8.63;3.90;;;;;;;;;;6324075;22;20213;-88
2022/04/17 03:13:15;;;;;;;8.87;4.07;;;;;;;;;;6302486;22;20181;-88
2022/04/17 03:16:23;;;;;;;8.33;4.00;;;;;;;;;;6301564;22;20152;-89
2022/04/17 03:19:28;;;;;;;10.87;3.93;;;;;;;;;;6322284;22;20169;-88
2022/04/17 03:22:33;;;;;;;8.30;3.93;;;;;;;;;;6322566;22;20443;-86
2022/04/17 03:25:39;;;;;;;6.83;3.70;;;;;;;;;;6320482;22;20188;-87
2022/04/17 03:28:48;;;;;;;10.00;3.70;;;;;;;;;;6304210;22;20177;-89
2022/04/17 03:31:53;;;;;;;6.47;3.63;;;;;;;;;;6319686;22;20711;-87
2022/04/17 03:34:59;;;;;;;6.53;3.60;;;;;;;;;;6323992;22;20149;-88
2022/04/17 03:38:04;;;;;;;8.13;3.83;;;;;;;;;;6322498;22;20208;-86
2022/04/17 03:41:09;;;;;;;7.10;3.60;;;;;;;;;;6304760;22;20153;-89
2022/04/17 03:44:16;;;;;;;5.60;3.53;;;;;;;;;;6303998;22;20556;-85
2022/04/17 03:47:21;;;;;;;7.40;3.80;;;;;;;;;;6302545;22;20164;-89
2022/04/17 03:50:27;;;;;;;8.07;3.77;;;;;;;;;;6320865;22;20207;-86
2022/04/17 03:53:36;;;;;;;7.00;3.43;;;;;;;;;;6320929;22;20173;-89
2022/04/17 03:56:42;;;;;;;9.13;3.60;;;;;;;;;;6303701;22;20165;-87
2022/04/17 03:59:48;;;;;;;6.87;3.83;;;;;;;;;;6300841;22;20180;-87
2022/04/17 04:03:01;;;;;;;8.13;4.03;;;;;;;;;;6302776;22;20234;-85
2022/04/17 04:06:06;;;;;;;6.90;3.53;;;;;;;;;;6320789;22;20237;-86
2022/04/17 04:09:11;;;;;;;12.20;4.30;;;;;;;;;;6303360;22;20214;-87
2022/04/17 04:12:17;;;;;;;7.60;4.23;;;;;;;;;;6305313;22;20200;-86
2022/04/17 04:15:24;;;;;;;12.47;4.37;;;;;;;;;;6320633;22;20252;-88
2022/04/17 04:18:33;;;;;;;12.97;5.00;;;;;;;;;;6320965;22;20168;-86
2022/04/17 04:21:47;;;;;;;7.67;3.83;;;;;;;;;;6319890;22;20169;-87
2022/04/17 04:24:52;;;;;;;8.27;3.77;;;;;;;;;;6320573;22;20170;-86
2022/04/17 04:31:29;;;;;;;6.67;3.30;;;;;;;;;;6271652;22;20236;-86
2022/04/17 04:34:34;;;;;;;5.53;3.43;;;;;;;;;;6321522;22;20161;-88
2022/04/17 04:37:39;;;;;;;6.60;3.67;;;;;;;;;;6323150;22;20181;-86
2022/04/17 04:40:44;;;;;;;8.23;3.93;;;;;;;;;;6323651;22;20169;-87
2022/04/17 04:43:50;;;;;;;6.83;3.90;;;;;;;;;;6324296;22;20180;-88
2022/04/17 04:46:57;;;;;;;5.43;3.47;;;;;;;;;;6323945;22;20157;-88
2022/04/17 04:50:03;;;;;;;9.43;4.00;;;;;;;;;;6305456;22;20258;-85
2022/04/17 04:53:09;;;;;;;8.23;3.57;;;;;;;;;;6323786;22;20216;-87
2022/04/17 04:56:15;;;;;;;5.60;3.47;;;;;;;;;;6321596;22;20165;-85
2022/04/17 04:59:22;;;;;;;11.23;4.30;;;;;;;;;;6304560;22;20160;-86
2022/04/17 05:02:29;;;;;;;5.63;3.57;;;;;;;;;;6322337;22;20660;-87
2022/04/17 05:05:35;;;;;;;7.00;3.47;;;;;;;;;;6323858;22;20172;-86
2022/04/17 05:08:40;;;;;;;8.77;4.10;;;;;;;;;;6304317;22;20161;-87
2022/04/17 05:11:46;;;;;;;6.63;3.63;;;;;;;;;;6320376;22;20237;-86
2022/04/17 05:14:51;;;;;;;7.00;3.50;;;;;;;;;;6321745;22;20169;-86
2022/04/17 05:17:58;;;;;;;7.17;3.77;;;;;;;;;;6325198;22;20157;-86
2022/04/17 05:21:05;;;;;;;7.73;3.60;;;;;;;;;;6324475;22;20164;-88
2022/04/17 05:24:10;;;;;;;6.73;3.73;;;;;;;;;;6325609;22;20266;-87
2022/04/17 05:27:16;;;;;;;6.40;3.47;;;;;;;;;;6324169;22;20166;-87
2022/04/17 05:30:21;;;;;;;6.77;3.87;;;;;;;;;;6323010;22;20173;-86
2022/04/17 05:33:29;;;;;;;8.37;4.37;;;;;;;;;;6304279;22;20210;-88
2022/04/17 05:36:34;;;;;;;10.03;3.97;;;;;;;;;;6303906;22;20515;-87
2022/04/17 05:40:09;;;;;;;7.13;3.80;;;;;;;;;;6304128;22;20552;-87
2022/04/17 05:43:14;;;;;;;7.37;4.00;;;;;;;;;;6323246;22;20184;-87
2022/04/17 05:46:20;;;;;;;10.00;3.60;;;;;;;;;;6319750;22;20173;-88
2022/04/17 05:49:29;;;;;;;6.20;3.57;;;;;;;;;;6303445;22;20177;-87
2022/04/17 05:52:35;;;;;;;8.30;3.87;;;;;;;;;;6319786;22;20441;-86
2022/04/17 05:55:41;;;;;;;6.37;3.37;;;;;;;;;;6320100;22;20243;-87
2022/04/17 05:58:47;;;;;;;10.13;3.13;;;;;;;;;;6320979;22;20165;-86
2022/04/17 06:01:52;;;;;;;5.20;3.20;;;;;;;;;;6321227;22;20208;-88
2022/04/17 06:05:00;;;;;;;5.43;3.30;;;;;;;;;;6321468;22;20164;-86
2022/04/17 06:08:05;;;;;;;5.47;3.17;;;;;;;;;;6321118;22;20237;-90
2022/04/17 06:11:13;;;;;;;6.40;3.50;;;;;;;;;;6327359;22;20165;-90
2022/04/17 06:14:19;;;;;;;7.27;2.90;;;;;;;;;;6320897;22;20174;-86
2022/04/17 06:17:26;;;;;;;6.10;2.90;;;;;;;;;;6302047;22;20169;-87
2022/04/17 06:20:33;;;;;;;5.17;2.73;;;;;;;;;;6303293;22;20165;-87
2022/04/17 06:23:39;;;;;;;5.23;2.80;;;;;;;;;;6321251;22;20188;-88
2022/04/17 06:26:44;;;;;;;6.85;2.80;;;;;;;;;;6321801;22;20520;-90
2022/04/17 06:29:50;;;;;;;7.77;3.07;;;;;;;;;;6320326;22;20169;-90
2022/04/17 06:32:56;;;;;;;7.45;3.03;;;;;;;;;;6322894;22;20177;-89
2022/04/17 06:36:05;;;;;;;6.20;3.05;;;;;;;;;;6322533;22;20886;-87
2022/04/17 06:39:38;;;;;;;5.72;2.85;;;;;;;;;;6322728;22;20224;-87
2022/04/17 06:42:43;;;;;;;4.60;2.80;;;;;;;;;;6321623;22;20243;-86
2022/04/17 06:45:49;;;;;;;5.97;2.97;;;;;;;;;;6323010;22;20169;-86
2022/04/17 06:48:54;;;;;;;6.20;2.95;;;;;;;;;;6322747;22;20274;-87
2022/04/17 06:52:02;;;;;;;5.63;3.30;;;;;;;;;;6321888;22;20157;-84
2022/04/17 06:55:11;;;;;;;6.43;2.88;;;;;;;;;;6322207;22;20196;-88
2022/04/17 06:58:17;;;;;;;5.55;3.20;;;;;;;;;;6321449;22;20160;-88
2022/04/17 07:01:23;;;;;;;4.78;2.80;;;;;;;;;;6323716;22;20172;-86
2022/04/17 07:04:29;;;;;;;6.43;3.40;;;;;;;;;;6322224;22;20193;-88
2022/04/17 07:07:37;;;;;;;6.05;3.20;;;;;;;;;;6319566;22;20161;-87
2022/04/17 07:10:42;;;;;;;16.88;5.07;;;;;;;;;;6322367;22;20165;-87
2022/04/17 07:13:47;;;;;;;6.75;2.88;;;;;;;;;;6322791;22;20208;-87
2022/04/17 07:16:55;;;;;;;6.82;2.95;;;;;;;;;;6319668;22;20169;-87
2022/04/17 07:20:01;;;;;;;5.63;2.83;;;;;;;;;;6322059;22;20219;-88
2022/04/17 07:23:08;;;;;;;5.43;2.95;;;;;;;;;;6319763;22;20638;-88
2022/04/17 07:26:14;;;;;;;3.85;2.60;;;;;;;;;;6303322;22;20200;-89
2022/04/17 07:29:22;;;;;;;5.38;2.78;;;;;;;;;;6322657;22;20187;-87
2022/04/17 07:32:30;;;;;;;9.88;3.42;;;;;;;;;;6324827;22;20168;-88
2022/04/17 07:35:36;;;;;;;5.30;3.03;;;;;;;;;;6319643;22;20231;-88
2022/04/17 07:38:43;;;;;;;6.07;3.03;;;;;;;;;;6318713;22;20496;-90
2022/04/17 07:41:48;;;;;;;5.70;3.22;;;;;;;;;;6300174;22;20203;-88
2022/04/17 07:44:52;;;;;;;5.88;2.95;;;;;;;;;;6320625;22;20200;-89
2022/04/17 07:47:58;;;;;;;5.95;3.17;;;;;;;;;;6323499;22;20168;-87
2022/04/17 07:51:05;;;;;;;4.72;2.58;;;;;;;;;;6321916;22;20204;-89
2022/04/17 07:54:12;;;;;;;5.20;2.70;;;;;;;;;;6302728;22;20215;-88
2022/04/17 07:57:17;;;;;;;4.53;2.50;;;;;;;;;;6300461;22;20165;-89
2022/04/17 08:00:23;;;;;;;6.95;3.20;;;;;;;;;;6319749;22;20146;-89
2022/04/17 08:03:46;;;;;;;7.60;3.00;;;;;;;;;;6302082;22;20503;-89
2022/04/17 08:06:55;;;;;;;6.55;2.70;;;;;;;;;;6319425;22;20173;-89
2022/04/17 08:10:02;;;;;;;4.10;2.40;;;;;;;;;;6320221;22;20216;-89
2022/04/17 08:13:07;;;;;;;6.15;2.67;;;;;;;;;;6300682;22;20280;-86
2022/04/17 08:16:12;;;;;;;6.18;2.78;;;;;;;;;;6318769;22;20199;-89
2022/04/17 08:19:19;;;;;;;5.75;2.40;;;;;;;;;;6301865;22;20172;-89
2022/04/17 08:22:23;;;;;;;4.55;2.25;;;;;;;;;;6301701;22;20239;-89
2022/04/17 08:25:34;;;;;;;3.50;2.13;;;;;;;;;;6319752;22;20160;-89
2022/04/17 08:28:39;;;;;;;3.45;2.10;;;;;;;;;;6319254;22;20211;-89
2022/04/17 08:31:44;;;;;;;4.28;2.35;;;;;;;;;;6321092;22;20173;-87
2022/04/17 08:34:49;;;;;;;4.80;2.28;;;;;;;;;;6320651;22;20197;-89
2022/04/17 08:37:57;;;;;;;4.45;2.05;;;;;;;;;;6322007;22;20165;-88
2022/04/17 08:41:06;;;;;;;3.78;2.03;;;;;;;;;;6319904;22;20188;-88
2022/04/17 08:44:13;;;;;;;6.40;2.30;;;;;;;;;;6304824;22;20169;-90
2022/04/17 08:47:21;;;;;;;3.92;2.00;;;;;;;;;;6284599;22;20166;-87
2022/04/17 08:50:30;;;;;;;5.15;2.00;;;;;;;;;;6301864;22;20188;-90
2022/04/17 08:53:40;;;;;;;5.60;2.15;;;;;;;;;;6320076;22;20240;-90
2022/04/17 08:56:53;;;;;;;4.90;2.00;;;;;;;;;;6321167;22;20173;-88
2022/04/17 08:59:58;;;;;;;6.97;2.25;;;;;;;;;;6301913;22;20169;-85
2022/04/17 09:03:04;;;;;;;5.28;2.28;;;;;;;;;;6320442;22;20224;-88
2022/04/17 09:06:13;;;;;;;4.32;2.10;;;;;;;;;;6320842;22;20208;-89
2022/04/17 09:09:21;;;;;;;7.93;2.22;;;;;;;;;;6322437;22;20212;-88
2022/04/17 09:12:31;;;;;;;4.55;2.33;;;;;;;;;;6321508;22;20240;-87
2022/04/17 09:15:37;;;;;;;5.90;2.10;;;;;;;;;;6320835;22;20457;-87
2022/04/17 09:18:43;;;;;;;5.13;2.30;;;;;;;;;;6321805;22;20165;-89
2022/04/17 09:21:55;;;;;;;4.22;1.70;;;;;;;;;;6322286;22;20168;-89
2022/04/17 09:25:12;;;;;;;5.63;2.05;;;;;;;;;;6324533;22;20185;-89
2022/04/17 09:28:19;;;;;;;2.45;1.60;;;;;;;;;;6324825;22;20192;-89
2022/04/17 09:31:27;;;;;;;6.78;2.80;;;;;;;;;;6319974;22;20168;-89
2022/04/17 09:34:43;;;;;;;3.97;1.80;;;;;;;;;;6322665;22;20184;-89
2022/04/17 09:37:48;;;;;;;7.20;1.90;;;;;;;;;;6321754;22;20486;-89
2022/04/17 09:40:55;;;;;;;4.45;1.90;;;;;;;;;;6322369;22;20169;-89
2022/04/17 09:44:02;;;;;;;3.97;1.60;;;;;;;;;;6303299;22;20169;-88
2022/04/17 09:47:12;;;;;;;2.72;1.58;;;;;;;;;;6322879;22;20165;-88
2022/04/17 09:50:18;;;;;;;3.55;1.63;;;;;;;;;;6306222;22;20201;-91
2022/04/17 09:53:31;;;;;;;4.38;2.22;;;;;;;;;;6324372;22;20165;-89
2022/04/17 09:56:38;;;;;;;4.53;2.10;;;;;;;;;;6304186;22;20247;-88
2022/04/17 09:59:47;;;;;;;6.50;2.55;;;;;;;;;;6325292;22;20169;-87
2022/04/17 10:02:52;;;;;;;4.47;1.90;;;;;;;;;;6302825;22;20165;-88
2022/04/17 10:05:58;;;;;;;3.95;1.98;;;;;;;;;;6320408;22;20164;-87
2022/04/17 10:09:03;;;;;;;3.30;1.85;;;;;;;;;;6321668;22;20208;-92
2022/04/17 10:12:09;;;;;;;3.63;1.80;;;;;;;;;;6304487;22;20490;-88
2022/04/17 10:15:16;;;;;;;6.30;2.08;;;;;;;;;;6301280;22;20193;-86
2022/04/17 10:18:34;;;;;;;3.75;2.20;;;;;;;;;;6303644;22;20168;-88
2022/04/17 10:21:40;;;;;;;3.75;1.80;;;;;;;;;;6319807;22;20157;-84
2022/04/17 10:24:51;;;;;;;5.45;1.80;;;;;;;;;;6320786;22;20285;-88
2022/04/17 10:28:00;;;;;;;2.72;1.77;;;;;;;;;;6303156;22;20165;-88
2022/04/17 10:31:14;;;;;;;2.90;1.60;;;;;;;;;;6320980;22;20267;-88
2022/04/17 10:34:27;;;;;;;5.70;1.92;;;;;;;;;;6303408;22;20196;-87
2022/04/17 10:37:43;;;;;;;6.18;2.13;;;;;;;;;;6321282;22;20152;-89
2022/04/17 10:40:59;;;;;;;6.03;2.05;;;;;;;;;;6301384;22;20222;-88
2022/04/17 10:44:05;;;;;;;4.80;1.80;;;;;;;;;;6300873;22;20193;-86
2022/04/17 10:47:20;;;;;;;6.60;1.70;;;;;;;;;;6319366;22;20165;-86
2022/04/17 10:50:25;;;;;;;3.88;1.65;;;;;;;;;;6320216;22;20192;-84
2022/04/17 10:53:32;;;;;;;3.95;1.73;;;;;;;;;;6304348;22;20184;-90
2022/04/17 10:56:38;;;;;;;4.28;2.15;;;;;;;;;;6320141;22;20177;-89
2022/04/17 10:59:45;;;;;;;5.03;2.10;;;;;;;;;;6301507;22;20165;-86
2022/04/17 11:02:52;;;;;;;7.00;1.80;;;;;;;;;;6321327;22;20639;-87
2022/04/17 11:06:09;;;;;;;6.55;2.80;;;;;;;;;;6321416;22;20220;-90
2022/04/17 11:09:16;;;;;;;8.55;4.22;;;;;;;;;;6305343;22;20165;-90
2022/04/17 11:12:23;;;;;;;6.50;1.75;;;;;;;;;;6321663;22;20193;-90
2022/04/17 11:15:29;;;;;;;3.55;1.88;;;;;;;;;;6321222;22;20577;-89
2022/04/17 11:18:41;;;;;;;4.10;1.52;;;;;;;;;;6304715;22;20165;-88
2022/04/17 11:21:47;;;;;;;3.28;1.77;;;;;;;;;;6320944;22;20207;-88
2022/04/17 11:25:06;;;;;;;3.67;1.70;;;;;;;;;;6323873;22;20209;-90
2022/04/17 11:28:32;;;;;;;4.28;2.20;;;;;;;;;;6321769;22;20239;-89
2022/04/17 11:31:37;;;;;;;2.58;1.60;;;;;;;;;;6322880;22;20156;-88
2022/04/17 11:34:47;;;;;;;2.78;1.58;;;;;;;;;;6302357;22;20253;-86
2022/04/17 11:37:54;;;;;;;3.65;1.70;;;;;;;;;;6304885;22;20154;-91
2022/04/17 11:41:02;;;;;;;4.18;1.75;;;;;;;;;;6321232;22;20259;-90
2022/04/17 11:44:07;;;;;;;2.67;1.60;;;;;;;;;;6318832;22;20176;-88
2022/04/17 11:47:15;;;;;;;5.60;1.65;;;;;;;;;;6320519;22;20205;-88
2022/04/17 11:50:23;;;;;;;3.65;1.50;;;;;;;;;;6319886;22;20188;-90
2022/04/17 11:53:33;;;;;;;3.33;1.67;;;;;;;;;;6303561;22;20153;-88
2022/04/17 11:56:51;;;;;;;2.05;1.63;;;;;;;;;;6319957;22;20237;-89
2022/04/17 11:59:57;;;;;;;3.38;1.50;;;;;;;;;;6319991;22;20173;-89
2022/04/17 12:03:04;;;;;;;4.03;1.80;;;;;;;;;;6322493;22;20229;-89
2022/04/17 12:06:11;;;;;;;2.78;1.52;;;;;;;;;;6319646;22;20545;-88
2022/04/17 12:09:21;;;;;;;2.13;1.25;;;;;;;;;;6303239;22;20295;-88
2022/04/17 12:12:33;;;;;;;4.93;1.75;;;;;;;;;;6320871;22;20184;-88
2022/04/17 12:15:38;;;;;;;6.30;2.10;;;;;;;;;;6317102;22;20263;-88
2022/04/17 12:18:54;;;;;;;2.85;1.65;;;;;;;;;;6322942;22;20144;-90
2022/04/17 12:22:00;;;;;;;4.68;1.88;;;;;;;;;;6320697;22;20180;-87
2022/04/17 12:25:06;;;;;;;2.25;1.30;;;;;;;;;;6318432;22;20160;-86
2022/04/17 12:28:11;;;;;;;3.78;1.67;;;;;;;;;;6303844;22;20506;-88
2022/04/17 12:31:17;;;;;;;3.83;1.67;;;;;;;;;;6318496;22;20211;-88
2022/04/17 12:34:26;;;;;;;3.35;1.70;;;;;;;;;;6321054;22;20176;-88
2022/04/17 12:37:34;;;;;;;3.00;1.60;;;;;;;;;;6318738;22;20161;-88
2022/04/17 12:40:42;;;;;;;4.35;1.60;;;;;;;;;;6299829;22;20187;-87
2022/04/17 12:43:49;;;;;;;3.22;1.67;;;;;;;;;;6319192;22;20169;-87
2022/04/17 12:46:56;;;;;;;3.15;1.40;;;;;;;;;;6299497;22;20164;-85
2022/04/17 12:50:05;;;;;;;2.00;1.13;;;;;;;;;;6319949;22;20189;-87
2022/04/17 12:53:13;;;;;;;4.47;2.00;;;;;;;;;;6300770;22;20249;-88
2022/04/17 12:56:22;;;;;;;3.67;1.42;;;;;;;;;;6300050;22;20371;-87
2022/04/17 12:59:27;;;;;;;1.98;1.30;;;;;;;;;;6321770;22;20276;-88
2022/04/17 13:02:32;;;;;;;4.07;1.50;;;;;;;;;;6301594;22;20185;-88
2022/04/17 13:05:37;;;;;;;3.85;1.50;;;;;;;;;;6303939;22;20196;-87
2022/04/17 13:08:44;;;;;;;4.07;1.20;;;;;;;;;;6321962;22;20176;-88
2022/04/17 13:11:51;;;;;;;3.88;1.58;;;;;;;;;;6319712;22;20775;-86
2022/04/17 13:14:57;;;;;;;3.30;1.75;;;;;;;;;;6322490;22;20177;-86
2022/04/17 13:18:04;;;;;;;3.42;1.60;;;;;;;;;;6326112;22;20178;-87
2022/04/17 13:21:09;;;;;;;4.25;1.73;;;;;;;;;;6303779;22;20218;-88
2022/04/17 13:24:17;;;;;;;2.30;1.40;;;;;;;;;;6302936;22;20166;-90
2022/04/17 13:27:22;;;;;;;5.43;1.48;;;;;;;;;;6304568;22;20225;-87
2022/04/17 13:30:27;;;;;;;1.95;1.33;;;;;;;;;;6320349;22;20149;-87
2022/04/17 13:33:32;;;;;;;5.15;1.73;;;;;;;;;;6319973;22;20616;-85
2022/04/17 13:36:38;;;;;;;3.97;1.30;;;;;;;;;;6322308;22;20229;-89
2022/04/17 13:39:45;;;;;;;4.47;1.17;;;;;;;;;;6320628;22;20217;-86
2022/04/17 13:42:50;;;;;;;2.25;1.30;;;;;;;;;;6300877;22;20169;-86
2022/04/17 13:45:57;;;;;;;3.03;1.35;;;;;;;;;;6318133;22;20153;-85
2022/04/17 13:49:02;;;;;;;1.75;1.13;;;;;;;;;;6319775;22;20299;-87
2022/04/17 13:52:08;;;;;;;4.40;1.40;;;;;;;;;;6299960;22;20165;-88
2022/04/17 13:55:17;;;;;;;2.70;1.35;;;;;;;;;;6301676;22;20231;-89
2022/04/17 13:58:23;;;;;;;5.13;1.60;;;;;;;;;;6319952;22;20176;-88
2022/04/17 14:01:28;;;;;;;1.98;1.10;;;;;;;;;;6300173;22;20623;-86
2022/04/17 14:04:33;;;;;;;3.72;1.40;;;;;;;;;;6320607;22;20227;-89
2022/04/17 14:07:39;;;;;;;3.03;1.00;;;;;;;;;;6318937;22;20184;-87
2022/04/17 14:10:45;;;;;;;1.45;1.13;;;;;;;;;;6299887;22;20169;-86
2022/04/17 14:13:51;;;;;;;2.85;1.20;;;;;;;;;;6320060;22;20291;-88
2022/04/17 14:16:57;;;;;;;2.90;0.90;;;;;;;;;;6318993;22;20168;-87
2022/04/17 14:20:03;;;;;;;3.20;1.00;;;;;;;;;;6318575;22;20176;-84
2022/04/17 14:23:08;;;;;;;3.17;1.15;;;;;;;;;;6317738;22;20241;-88
2022/04/17 14:26:14;;;;;;;2.33;1.00;;;;;;;;;;6300907;22;20168;-89
2022/04/17 14:29:19;;;;;;;2.65;1.05;;;;;;;;;;6319153;22;20168;-90
2022/04/17 14:32:24;;;;;;;2.20;1.00;;;;;;;;;;6323130;22;20225;-88
2022/04/17 14:35:33;;;;;;;2.28;1.08;;;;;;;;;;6318740;22;20188;-87
2022/04/17 14:38:38;;;;;;;1.77;1.00;;;;;;;;;;6320713;22;20230;-88
2022/04/17 14:41:45;;;;;;;5.07;1.25;;;;;;;;;;6301930;22;20231;-87
2022/04/17 14:44:50;;;;;;;2.53;1.20;;;;;;;;;;6318885;22;20223;-86
2022/04/17 14:47:56;;;;;;;4.05;1.50;;;;;;;;;;6320143;22;20168;-88
2022/04/17 14:51:02;;;;;;;3.50;1.10;;;;;;;;;;6301180;22;20191;-88
2022/04/17 14:54:10;;;;;;;2.67;1.30;;;;;;;;;;6318621;22;20165;-82
2022/04/17 14:57:16;;;;;;;3.38;1.35;;;;;;;;;;6302872;22;20212;-86
2022/04/17 15:00:22;;;;;;;2.35;1.05;;;;;;;;;;6301900;22;20212;-88
2022/04/17 15:03:28;;;;;;;3.65;1.10;;;;;;;;;;6302318;22;20237;-88
2022/04/17 15:06:33;;;;;;;1.75;1.02;;;;;;;;;;6318710;22;20187;-89
2022/04/17 15:09:38;;;;;;;2.63;1.00;;;;;;;;;;6299595;22;20220;-86
2022/04/17 15:12:45;;;;;;;2.15;1.33;;;;;;;;;;6319492;22;20157;-86
2022/04/17 15:15:50;;;;;;;3.08;1.42;;;;;;;;;;6319578;22;20223;-87
2022/04/17 15:18:55;;;;;;;1.83;1.17;;;;;;;;;;6320505;22;20479;-89
2022/04/17 15:22:05;;;;;;;2.67;1.40;;;;;;;;;;6320485;22;20161;-87
2022/04/17 15:25:11;;;;;;;2.25;1.27;;;;;;;;;;6318375;22;20237;-87
2022/04/17 15:28:17;;;;;;;5.72;1.40;;;;;;;;;;6317777;22;20162;-85
2022/04/17 15:31:22;;;;;;;2.47;1.15;;;;;;;;;;6302451;22;20165;-87
2022/04/17 15:34:28;;;;;;;1.88;1.17;;;;;;;;;;6318675;22;20168;-87
2022/04/17 15:37:33;;;;;;;3.97;1.20;;;;;;;;;;6317541;22;20169;-87
2022/04/17 15:40:40;;;;;;;2.45;1.20;;;;;;;;;;6317127;22;20161;-85
2022/04/17 15:50:33;;;;;;;1.83;1.20;;;;;;;;;;6314716;22;20260;-85
2022/04/17 15:53:38;;;;;;;2.85;1.27;;;;;;;;;;6298737;22;20161;-87
2022/04/17 15:56:43;;;;;;;2.50;1.10;;;;;;;;;;6298910;22;20193;-89
2022/04/17 15:59:50;;;;;;;9.57;3.70;;;;;;;;;;6300993;22;20252;-87
2022/04/17 16:02:55;;;;;;;2.70;1.30;;;;;;;;;;6319644;22;20654;-88
2022/04/17 16:06:00;;;;;;;3.15;1.20;;;;;;;;;;6300712;22;20164;-87
2022/04/17 16:09:06;;;;;;;5.50;2.22;;;;;;;;;;6317961;22;20173;-86
2022/04/17 16:12:17;;;;;;;3.00;1.20;;;;;;;;;;6299915;22;20203;-86
2022/04/17 16:15:24;;;;;;;2.60;1.20;;;;;;;;;;6317194;22;20200;-87
2022/04/17 16:18:29;;;;;;;3.03;1.33;;;;;;;;;;6319625;22;20675;-89
2022/04/17 16:21:35;;;;;;;3.00;1.40;;;;;;;;;;6299664;22;20279;-86
2022/04/17 16:24:40;;;;;;;2.45;1.08;;;;;;;;;;6299112;22;20491;-86
2022/04/17 16:27:45;;;;;;;2.88;1.30;;;;;;;;;;6317381;22;20161;-87
2022/04/17 16:30:52;;;;;;;2.65;1.20;;;;;;;;;;6300227;22;20184;-86
2022/04/17 16:33:58;;;;;;;4.32;1.40;;;;;;;;;;6300485;22;20512;-90
2022/04/17 16:37:04;;;;;;;5.75;2.33;;;;;;;;;;6320140;22;20196;-87
2022/04/17 16:40:09;;;;;;;3.78;1.50;;;;;;;;;;6320593;22;20173;-88
2022/04/17 16:43:18;;;;;;;3.10;1.40;;;;;;;;;;6303368;22;20172;-90
2022/04/17 16:46:25;;;;;;;3.67;1.98;;;;;;;;;;6320417;22;20158;-89
2022/04/17 16:49:31;;;;;;;4.63;1.70;;;;;;;;;;6306649;22;20172;-87
2022/04/17 16:52:39;;;;;;;5.05;2.50;;;;;;;;;;6320250;22;20251;-87
2022/04/17 16:55:44;;;;;;;3.83;1.70;;;;;;;;;;6303824;22;20192;-88
2022/04/17 17:02:14;;;;;;;3.92;1.80;;;;;;;;;;6319908;22;20188;-87
2022/04/17 17:05:21;;;;;;;2.83;1.40;;;;;;;;;;6301352;22;20165;-86
2022/04/17 17:08:25;;;;;;;3.78;1.80;;;;;;;;;;6318264;22;20188;-87
2022/04/17 17:11:30;;;;;;;5.70;1.70;;;;;;;;;;6300447;22;20480;-85
2022/04/17 17:14:36;;;;;;;2.80;1.60;;;;;;;;;;6318296;22;20172;-86
2022/04/17 17:17:50;;;;;;;3.13;1.80;;;;;;;;;;6318580;22;20174;-88
2022/04/17 17:20:55;;;;;;;3.97;1.63;;;;;;;;;;6319253;22;20708;-86
2022/04/17 17:24:00;;;;;;;5.20;1.38;;;;;;;;;;6318780;22;20172;-90
2022/04/17 17:27:05;;;;;;;3.75;1.55;;;;;;;;;;6301685;22;20217;-87
2022/04/17 17:30:11;;;;;;;5.18;1.98;;;;;;;;;;6320032;22;20149;-86
2022/04/17 17:33:18;;;;;;;8.40;2.22;;;;;;;;;;6320569;22;20616;-88
2022/04/17 17:36:23;;;;;;;6.68;2.00;;;;;;;;;;6321135;22;20278;-89
2022/04/17 17:39:29;;;;;;;5.32;2.08;;;;;;;;;;6321443;22;20227;-86
2022/04/17 17:42:34;;;;;;;8.23;1.85;;;;;;;;;;6301929;22;20181;-86
2022/04/17 17:45:39;;;;;;;5.55;1.95;;;;;;;;;;6318458;22;20160;-87
2022/04/17 17:48:45;;;;;;;4.28;1.92;;;;;;;;;;6319458;22;20264;-88
2022/04/17 17:51:50;;;;;;;7.00;2.30;;;;;;;;;;6301974;22;20173;-86
2022/04/17 17:54:55;;;;;;;3.03;1.60;;;;;;;;;;6320783;22;20165;-88
2022/04/17 17:58:01;;;;;;;4.95;2.00;;;;;;;;;;6318363;22;20177;-85
2022/04/17 18:01:09;;;;;;;4.53;1.65;;;;;;;;;;6300389;22;20633;-87
2022/04/17 18:04:15;;;;;;;3.65;1.80;;;;;;;;;;6319527;22;20245;-87
2022/04/17 18:14:30;;;;;;;4.38;2.03;;;;;;;;;;6300621;22;20208;-88
2022/04/17 18:17:37;;;;;;;5.43;2.00;;;;;;;;;;6319140;22;20232;-89
2022/04/17 18:20:43;;;;;;;4.25;1.83;;;;;;;;;;6318288;22;20173;-89
2022/04/17 18:23:49;;;;;;;7.28;1.88;;;;;;;;;;6318268;22;20165;-89
2022/04/17 18:26:54;;;;;;;6.07;2.28;;;;;;;;;;6316447;22;20164;-86
2022/04/17 18:29:59;;;;;;;4.28;1.98;;;;;;;;;;6300031;22;20173;-90
2022/04/17 18:33:04;;;;;;;7.35;2.97;;;;;;;;;;6317806;22;20165;-86
2022/04/17 18:36:11;;;;;;;7.43;2.67;;;;;;;;;;6315447;22;20282;-87
2022/04/17 18:39:16;;;;;;;8.95;2.75;;;;;;;;;;6317570;22;20153;-86
2022/04/17 18:42:21;;;;;;;7.75;2.72;;;;;;;;;;6319595;22;20671;-88
2022/04/17 18:45:26;;;;;;;7.60;2.95;;;;;;;;;;6316379;22;20331;-87
2022/04/17 18:48:31;;;;;;;6.63;2.90;;;;;;;;;;6298055;22;20191;-86
2022/04/17 18:51:38;;;;;;;7.07;2.92;;;;;;;;;;6299768;22;20211;-88
2022/04/17 18:54:44;;;;;;;9.45;4.28;;;;;;;;;;6317417;22;20173;-86
2022/04/17 18:57:49;;;;;;;9.40;3.75;;;;;;;;;;6318227;22;20676;-87
2022/04/17 19:00:54;;;;;;;10.40;4.10;;;;;;;;;;6317768;22;20627;-88
2022/04/17 19:04:06;;;;;;;6.90;3.15;;;;;;;;;;6320104;22;20259;-88
2022/04/17 19:07:13;;;;;;;6.82;2.75;;;;;;;;;;6319236;22;20215;-86